createdAt,value
2017-03-02T10:08:34.239Z,95.34
2017-03-02T10:09:03.733Z,95.25
2017-03-02T10:09:37.309Z,95.01
2017-03-02T10:10:09.881Z,95.59
2017-03-02T10:10:39.741Z,95.59
2017-03-02T10:11:10.312Z,94.81
2017-03-02T10:11:45.930Z,94.62
2017-03-02T10:12:20.208Z,94.43
2017-03-02T10:12:51.475Z,93.75
2017-03-02T10:13:21.403Z,93.17
2017-03-02T10:13:52.234Z,93.65
2017-03-02T10:14:21.442Z,93.55
2017-03-02T10:14:50.298Z,94.13
2017-03-02T10:15:19.047Z,94.43
2017-03-02T10:15:48.121Z,94.71
2017-03-02T10:16:16.304Z,94.81
2017-03-02T10:16:45.679Z,93.94
2017-03-02T10:17:13.894Z,94.04
2017-03-02T10:17:42.196Z,93.55
2017-03-02T10:18:10.496Z,92.88
2017-03-02T10:18:39.117Z,92.97
2017-03-02T10:19:07.377Z,93.07
2017-03-02T10:19:35.587Z,92.97
2017-03-02T10:20:03.690Z,93.94
2017-03-02T10:20:31.729Z,93.31
2017-03-02T10:21:00.074Z,92.54
2017-03-02T10:21:28.340Z,92.49
2017-03-02T10:21:58.158Z,92.54
2017-03-02T10:22:26.632Z,93.02
2017-03-02T10:22:54.795Z,93.41
2017-03-02T10:23:23.004Z,93.99
2017-03-02T10:23:52.166Z,94.09
2017-03-02T10:24:27.947Z,93.74
2017-03-02T10:24:57.515Z,93.26
2017-03-02T10:25:26.188Z,93.16
2017-03-02T10:25:58.254Z,92.43
2017-03-02T10:26:26.918Z,91.95
2017-03-02T10:26:55.226Z,91.75
2017-03-02T10:27:23.286Z,90.64
2017-03-02T10:27:51.416Z,90.83
2017-03-02T10:28:19.666Z,90.16
2017-03-02T10:28:47.959Z,89.47
2017-03-02T10:29:16.268Z,89.76
2017-03-02T10:29:44.602Z,89.67
2017-03-02T10:30:12.957Z,89.67
2017-03-02T10:30:41.209Z,90.44
2017-03-02T10:31:09.472Z,90.73
2017-03-02T10:31:38.137Z,91.41
2017-03-02T10:32:06.482Z,91.71
2017-03-02T10:32:34.605Z,91.89
2017-03-02T10:33:02.858Z,91.61
2017-03-02T10:33:31.118Z,91.41
2017-03-02T10:33:59.358Z,90.25
2017-03-02T10:34:27.629Z,89.86
2017-03-02T10:34:55.970Z,88.89
2017-03-02T10:35:24.095Z,87.82
2017-03-02T10:35:52.211Z,87.73
2017-03-02T10:36:20.401Z,87.63
2017-03-02T10:36:48.516Z,85.89
2017-03-02T10:37:16.540Z,86.37
2017-03-02T10:37:44.652Z,87.63
2017-03-02T10:38:12.964Z,87.73
2017-03-02T10:38:41.279Z,87.54
2017-03-02T10:39:09.713Z,87.44
2017-03-02T10:39:39.099Z,88.41
2017-03-02T10:40:09.096Z,89.86
2017-03-02T10:40:37.261Z,89.76
2017-03-02T10:41:05.467Z,88.89
2017-03-02T10:41:35.504Z,88.89
2017-03-02T10:42:03.792Z,88.7
2017-03-02T10:42:31.824Z,88.31
2017-03-02T10:43:01.548Z,88.21
2017-03-02T10:43:29.790Z,87.54
2017-03-02T10:43:57.956Z,87.54
2017-03-02T10:44:26.156Z,87.63
2017-03-02T10:44:54.639Z,88.02
2017-03-02T10:45:22.676Z,88.31
2017-03-02T10:45:50.797Z,87.54
2017-03-02T10:46:19.143Z,87.44
2017-03-02T10:46:47.337Z,87.73
2017-03-02T10:47:15.453Z,87.73
2017-03-02T10:47:43.721Z,88.02
2017-03-02T10:48:11.879Z,88.31
2017-03-02T10:48:40.239Z,88.12
2017-03-02T10:49:08.607Z,86.57
2017-03-02T10:49:36.905Z,85.89
2017-03-02T10:50:05.250Z,86.37
2017-03-02T10:50:33.625Z,86.95
2017-03-02T10:51:01.928Z,85.79
2017-03-02T10:51:30.011Z,85.6
2017-03-02T10:51:58.365Z,86.08
2017-03-02T10:52:26.743Z,85.79
2017-03-02T10:52:55.098Z,85.89
2017-03-02T10:53:23.541Z,85.11
2017-03-02T10:53:52.074Z,85.3
2017-03-02T10:54:20.495Z,84.05
2017-03-02T10:54:48.615Z,83.27
2017-03-02T10:55:16.855Z,83.07
2017-03-02T10:55:45.154Z,82.4
2017-03-02T10:56:13.442Z,82.1
2017-03-02T10:56:41.736Z,82.53
2017-03-02T10:57:09.952Z,82.44
2017-03-02T10:57:38.096Z,82.15
2017-03-02T10:58:06.155Z,80.93
2017-03-02T10:58:34.470Z,80.54
2017-03-02T10:59:02.758Z,79.45
2017-03-02T10:59:30.995Z,77.7
2017-03-02T10:59:59.296Z,76.32
2017-03-02T11:00:27.317Z,75.78
2017-03-02T11:00:55.421Z,74.16
2017-03-02T11:01:23.856Z,73.12
2017-03-02T11:01:51.935Z,71.6
2017-03-02T11:02:20.172Z,70.17
2017-03-02T11:02:48.348Z,69.2
2017-03-02T11:03:16.479Z,68.52
2017-03-02T11:03:44.722Z,67.96
2017-03-02T11:04:12.902Z,67.28
2017-03-02T11:04:41.073Z,66.41
2017-03-02T11:05:09.219Z,65.36
2017-03-02T11:05:37.421Z,65.56
2017-03-02T11:06:05.575Z,66.34
2017-03-02T11:06:33.782Z,65.88
2017-03-02T11:07:02.048Z,64.51
2017-03-02T11:07:30.050Z,64.9
2017-03-02T11:07:58.488Z,65.1
2017-03-02T11:08:26.713Z,65.66
2017-03-02T11:08:54.997Z,65.56
2017-03-02T11:09:23.170Z,65.63
2017-03-02T11:09:51.453Z,65.53
2017-03-02T11:10:19.711Z,66.27
2017-03-02T11:10:47.974Z,67.8
2017-03-02T11:11:16.106Z,69.07
2017-03-02T11:11:44.309Z,69.52
2017-03-02T11:12:12.615Z,70.01
2017-03-02T11:12:40.805Z,70.2
2017-03-02T11:13:09.036Z,69.52
2017-03-02T11:13:37.181Z,70.14
2017-03-02T11:14:05.451Z,69.84
2017-03-02T11:14:33.578Z,69.17
2017-03-02T11:15:02.283Z,69.75
2017-03-02T11:15:30.535Z,68.87
2017-03-02T11:15:58.670Z,69.56
2017-03-02T11:16:26.790Z,69.42
2017-03-02T11:16:54.913Z,69.03
2017-03-02T11:17:23.200Z,69.62
2017-03-02T11:17:51.500Z,69.97
2017-03-02T11:18:19.671Z,70.26
2017-03-02T11:18:48.033Z,71.23
2017-03-02T11:19:16.281Z,71.2
2017-03-02T11:19:44.319Z,71.98
2017-03-02T11:20:12.468Z,72.96
2017-03-02T11:20:40.450Z,73.44
2017-03-02T11:21:08.548Z,73.93
2017-03-02T11:21:36.616Z,74.22
2017-03-02T11:22:04.887Z,74.22
2017-03-02T11:22:33.144Z,74.02
2017-03-02T11:23:01.317Z,74.12
2017-03-02T11:23:29.356Z,74.12
2017-03-02T11:23:57.496Z,74.61
2017-03-02T11:24:25.814Z,74.22
2017-03-02T11:24:54.103Z,72.96
2017-03-02T11:25:22.360Z,72.27
2017-03-02T11:25:50.524Z,71.98
2017-03-02T11:26:18.699Z,71.69
2017-03-02T11:26:47.246Z,72.43
2017-03-02T11:27:15.430Z,73.02
2017-03-02T11:27:43.429Z,73.21
2017-03-02T11:28:11.673Z,73.56
2017-03-02T11:28:39.892Z,74.24
2017-03-02T11:29:08.169Z,74.34
2017-03-02T11:29:36.241Z,75.02
2017-03-02T11:30:04.430Z,75.15
2017-03-02T11:30:32.627Z,74.96
2017-03-02T11:31:01.615Z,73.79
2017-03-02T11:31:31.188Z,73.37
2017-03-02T11:31:59.423Z,73.46
2017-03-02T11:32:27.585Z,73.85
2017-03-02T11:32:55.716Z,73.95
2017-03-02T11:33:23.928Z,74.05
2017-03-02T11:33:52.045Z,74.54
2017-03-02T11:34:20.256Z,74.82
2017-03-02T11:34:48.407Z,74.05
2017-03-02T11:35:16.687Z,74.24
2017-03-02T11:35:44.922Z,74.15
2017-03-02T11:36:12.976Z,74.05
2017-03-02T11:36:41.194Z,73.27
2017-03-02T11:37:09.532Z,73.18
2017-03-02T11:37:37.553Z,74.21
2017-03-02T11:38:05.729Z,73.95
2017-03-02T11:38:33.845Z,74.05
2017-03-02T11:39:01.992Z,74.05
2017-03-02T11:39:30.257Z,74.15
2017-03-02T11:39:58.463Z,74.15
2017-03-02T11:40:26.549Z,74.05
2017-03-02T11:40:54.880Z,73.95
2017-03-02T11:41:23.057Z,74.05
2017-03-02T11:41:51.240Z,74.63
2017-03-02T11:42:19.485Z,74.63
2017-03-02T11:42:47.570Z,74.76
2017-03-02T11:43:16.185Z,74.18
2017-03-02T11:43:45.258Z,72.63
2017-03-02T11:44:13.605Z,72.63
2017-03-02T11:44:42.071Z,72.49
2017-03-02T11:45:10.418Z,73.08
2017-03-02T11:45:38.612Z,72.39
2017-03-02T11:46:06.634Z,72.49
2017-03-02T11:46:34.743Z,72.59
2017-03-02T11:47:02.970Z,73.08
2017-03-02T11:47:31.250Z,73.08
2017-03-02T11:47:59.508Z,72.59
2017-03-02T11:48:30.267Z,72.59
2017-03-02T11:48:58.289Z,73.08
2017-03-02T11:49:26.721Z,72.49
2017-03-02T11:49:55.012Z,73.08
2017-03-02T11:50:23.337Z,73.27
2017-03-02T11:50:51.547Z,73.18
2017-03-02T11:51:19.788Z,74.34
2017-03-02T11:51:47.981Z,74.15
2017-03-02T11:52:16.156Z,73.27
2017-03-02T11:52:44.447Z,73.27
2017-03-02T11:53:12.682Z,73.18
2017-03-02T11:53:40.961Z,73.08
2017-03-02T11:54:09.158Z,72.59
2017-03-02T11:54:37.358Z,72.11
2017-03-02T11:55:05.532Z,72.39
2017-03-02T11:55:33.648Z,71.72
2017-03-02T11:56:02.050Z,72.2
2017-03-02T11:56:30.322Z,72.01
2017-03-02T11:56:58.442Z,72.01
2017-03-02T11:57:26.756Z,72.98
2017-03-02T11:57:54.827Z,72.3
2017-03-02T11:58:22.849Z,72.69
2017-03-02T11:58:50.999Z,72.49
2017-03-02T11:59:19.357Z,71.91
2017-03-02T11:59:47.544Z,71.91
2017-03-02T12:00:15.729Z,72.3
2017-03-02T12:00:44.022Z,72.39
2017-03-02T12:01:12.196Z,71.81
2017-03-02T12:01:40.311Z,71.94
2017-03-02T12:02:08.540Z,71.23
2017-03-02T12:02:37.165Z,71.17
2017-03-02T12:03:06.142Z,70.39
2017-03-02T12:03:34.452Z,70.1
2017-03-02T12:04:02.772Z,70.23
2017-03-02T12:04:31.044Z,70.04
2017-03-02T12:04:59.146Z,69.74
2017-03-02T12:05:27.805Z,69.68
2017-03-02T12:05:56.108Z,68.22
2017-03-02T12:06:25.065Z,68.02
2017-03-02T12:06:53.237Z,68.12
2017-03-02T12:07:21.525Z,67.83
2017-03-02T12:07:49.624Z,68.12
2017-03-02T12:08:19.218Z,68.38
2017-03-02T12:08:47.451Z,68.67
2017-03-02T12:09:15.778Z,69.45
2017-03-02T12:09:43.815Z,69.45
2017-03-02T12:10:12.222Z,69.55
2017-03-02T12:10:40.406Z,69.26
2017-03-02T12:11:08.549Z,68.96
2017-03-02T12:11:36.762Z,69.35
2017-03-02T12:12:04.655Z,69.26
2017-03-02T12:12:32.901Z,68.77
2017-03-02T12:13:01.080Z,69.06
2017-03-02T12:13:29.167Z,69.06
2017-03-02T12:13:57.258Z,68.8
2017-03-02T12:14:25.643Z,68.8
2017-03-02T12:14:53.814Z,67.96
2017-03-02T12:15:22.006Z,67.08
2017-03-02T12:15:50.189Z,66.73
2017-03-02T12:16:18.398Z,65.56
2017-03-02T12:16:46.773Z,65.46
2017-03-02T12:17:15.117Z,65.26
2017-03-02T12:17:43.519Z,64.87
2017-03-02T12:18:11.646Z,65.01
2017-03-02T12:18:39.904Z,64.29
2017-03-02T12:19:08.078Z,64.32
2017-03-02T12:19:36.364Z,63.84
2017-03-02T12:20:04.578Z,63.54
2017-03-02T12:20:32.780Z,63.74
2017-03-02T12:21:01.069Z,63.84
2017-03-02T12:21:29.203Z,63.25
2017-03-02T12:21:57.365Z,63.54
2017-03-02T12:22:25.472Z,63.74
2017-03-02T12:22:53.698Z,63.57
2017-03-02T12:23:22.027Z,63.48
2017-03-02T12:23:50.026Z,63.48
2017-03-02T12:24:18.226Z,62.89
2017-03-02T12:24:46.601Z,62.41
2017-03-02T12:25:14.825Z,63.09
2017-03-02T12:25:43.081Z,62.99
2017-03-02T12:26:10.996Z,62.79
2017-03-02T12:26:39.179Z,63.45
2017-03-02T12:27:07.284Z,63.93
2017-03-02T12:27:35.590Z,63.54
2017-03-02T12:28:03.898Z,63.74
2017-03-02T12:28:32.194Z,64.13
2017-03-02T12:29:00.444Z,64.32
2017-03-02T12:29:29.024Z,64.91
2017-03-02T12:29:57.330Z,64.03
2017-03-02T12:30:25.565Z,63.93
2017-03-02T12:30:53.611Z,64.32
2017-03-02T12:31:21.811Z,64.03
2017-03-02T12:31:50.127Z,64.52
2017-03-02T12:32:18.344Z,64.81
2017-03-02T12:32:46.384Z,64.81
2017-03-02T12:33:14.552Z,64.91
2017-03-02T12:33:43.365Z,64.52
2017-03-02T12:34:18.928Z,64.69
2017-03-02T12:34:56.922Z,64.97
2017-03-02T12:35:33.891Z,64.78
2017-03-02T12:36:03.833Z,66.05
2017-03-02T12:36:31.888Z,65.75
2017-03-02T12:36:59.941Z,66.02
2017-03-02T12:37:28.521Z,66.5
2017-03-02T12:37:57.263Z,66.89
2017-03-02T12:38:25.571Z,67.54
2017-03-02T12:38:53.763Z,67.25
2017-03-02T12:39:21.985Z,68.02
2017-03-02T12:39:50.333Z,67.35
2017-03-02T12:40:18.359Z,67.25
2017-03-02T12:40:46.576Z,67.35
2017-03-02T12:41:14.948Z,67.83
2017-03-02T12:41:43.132Z,68.48
2017-03-02T12:42:11.345Z,68.67
2017-03-02T12:42:39.597Z,68.77
2017-03-02T12:43:07.822Z,69.06
2017-03-02T12:43:35.986Z,68.51
2017-03-02T12:44:04.269Z,68.51
2017-03-02T12:44:32.568Z,68.12
2017-03-02T12:45:01.189Z,67.54
2017-03-02T12:45:29.316Z,67.83
2017-03-02T12:45:57.614Z,67.08
2017-03-02T12:46:25.711Z,66.89
2017-03-02T12:46:53.987Z,66.44
2017-03-02T12:47:22.316Z,66.73
2017-03-02T12:47:50.593Z,66.63
2017-03-02T12:48:18.857Z,65.75
2017-03-02T12:48:47.039Z,65.07
2017-03-02T12:49:15.315Z,65.63
2017-03-02T12:49:43.668Z,65.53
2017-03-02T12:50:11.853Z,66.6
2017-03-02T12:50:40.031Z,66.21
2017-03-02T12:51:08.333Z,66.6
2017-03-02T12:51:36.634Z,65.82
2017-03-02T12:52:04.676Z,66.31
2017-03-02T12:52:32.828Z,66.41
2017-03-02T12:53:00.918Z,66.69
2017-03-02T12:53:29.156Z,66.5
2017-03-02T12:53:57.370Z,66.37
2017-03-02T12:54:25.642Z,66.86
2017-03-02T12:54:53.748Z,66.27
2017-03-02T12:55:21.880Z,66.66
2017-03-02T12:55:50.075Z,66.37
2017-03-02T12:56:18.107Z,66.56
2017-03-02T12:56:46.331Z,66.47
2017-03-02T12:57:14.405Z,67.54
2017-03-02T12:57:42.688Z,67.25
2017-03-02T12:58:11.019Z,66.63
2017-03-02T12:58:39.219Z,66.56
2017-03-02T12:59:07.800Z,66.44
2017-03-02T12:59:38.128Z,66.34
2017-03-02T13:00:06.254Z,66.34
2017-03-02T13:00:34.391Z,67.21
2017-03-02T13:01:02.641Z,67.6
2017-03-02T13:01:30.744Z,67.31
2017-03-02T13:01:58.835Z,67.8
2017-03-02T13:02:27.038Z,67.31
2017-03-02T13:02:55.318Z,67.5
2017-03-02T13:03:23.584Z,67.31
2017-03-02T13:03:51.852Z,67.5
2017-03-02T13:04:20.053Z,67.21
2017-03-02T13:04:48.336Z,67.31
2017-03-02T13:05:16.659Z,67.21
2017-03-02T13:05:45.563Z,67.5
2017-03-02T13:06:13.840Z,67.21
2017-03-02T13:06:41.935Z,67.21
2017-03-02T13:07:10.167Z,67.31
2017-03-02T13:07:38.800Z,66.83
2017-03-02T13:08:07.138Z,67.11
2017-03-02T13:08:36.542Z,67.11
2017-03-02T13:09:04.853Z,67.41
2017-03-02T13:09:33.218Z,67.02
2017-03-02T13:10:01.813Z,66.53
2017-03-02T13:10:30.417Z,66.24
2017-03-02T13:10:59.109Z,66.44
2017-03-02T13:11:27.781Z,66.83
2017-03-02T13:11:56.572Z,67.8
2017-03-02T13:12:24.914Z,67.7
2017-03-02T13:12:53.068Z,67.5
2017-03-02T13:13:21.067Z,67.8
2017-03-02T13:13:49.094Z,67.5
2017-03-02T13:14:17.343Z,67.5
2017-03-02T13:14:45.565Z,66.86
2017-03-02T13:15:13.909Z,66.02
2017-03-02T13:15:42.074Z,64.29
2017-03-02T13:16:10.374Z,63.15
2017-03-02T13:16:38.708Z,62.28
2017-03-02T13:17:06.897Z,61.89
2017-03-02T13:17:35.159Z,62.02
2017-03-02T13:18:03.465Z,61.56
2017-03-02T13:18:31.758Z,61.56
2017-03-02T13:18:59.898Z,61.46
2017-03-02T13:19:28.203Z,60.97
2017-03-02T13:19:56.509Z,61.27
2017-03-02T13:20:24.769Z,61.07
2017-03-02T13:20:53.007Z,61.1
2017-03-02T13:21:21.335Z,60.13
2017-03-02T13:21:49.579Z,60.22
2017-03-02T13:22:17.768Z,60.19
2017-03-02T13:22:45.975Z,60.58
2017-03-02T13:23:14.110Z,60.39
2017-03-02T13:23:42.334Z,60.39
2017-03-02T13:24:10.425Z,60.58
2017-03-02T13:24:38.616Z,60.49
2017-03-02T13:25:06.796Z,60.13
2017-03-02T13:25:35.009Z,60
2017-03-02T13:26:03.200Z,60.22
2017-03-02T13:26:31.357Z,60.49
2017-03-02T13:26:59.647Z,60.29
2017-03-02T13:27:27.724Z,60.29
2017-03-02T13:27:55.973Z,60.58
2017-03-02T13:28:24.164Z,60.39
2017-03-02T13:28:52.183Z,61.36
2017-03-02T13:29:20.296Z,61.17
2017-03-02T13:29:48.428Z,61.56
2017-03-02T13:30:16.746Z,61.66
2017-03-02T13:30:44.864Z,61.36
2017-03-02T13:31:13.129Z,61.36
2017-03-02T13:31:41.357Z,61.17
2017-03-02T13:32:09.592Z,61.66
2017-03-02T13:32:37.780Z,61.56
2017-03-02T13:33:06.039Z,61.56
2017-03-02T13:33:34.201Z,61.46
2017-03-02T13:34:02.453Z,61.46
2017-03-02T13:34:30.610Z,60.68
2017-03-02T13:34:58.750Z,60.46
2017-03-02T13:35:26.687Z,60.55
2017-03-02T13:35:54.914Z,61.5
2017-03-02T13:36:23.151Z,61.79
2017-03-02T13:36:51.383Z,62.28
2017-03-02T13:37:19.489Z,62.63
2017-03-02T13:37:47.477Z,62.41
2017-03-02T13:38:15.710Z,63.39
2017-03-02T13:38:43.909Z,63.68
2017-03-02T13:39:12.038Z,63.19
2017-03-02T13:39:40.111Z,63.48
2017-03-02T13:40:08.275Z,63.68
2017-03-02T13:40:36.651Z,64.07
2017-03-02T13:41:04.846Z,64.04
2017-03-02T13:41:33.085Z,64.07
2017-03-02T13:42:01.305Z,64.13
2017-03-02T13:42:29.456Z,63.68
2017-03-02T13:42:57.618Z,64.26
2017-03-02T13:43:25.863Z,63.48
2017-03-02T13:43:53.978Z,63.51
2017-03-02T13:44:22.177Z,62.44
2017-03-02T13:44:50.354Z,62.08
2017-03-02T13:45:18.575Z,61.6
2017-03-02T13:45:46.895Z,61.53
2017-03-02T13:46:14.943Z,61.53
2017-03-02T13:46:43.211Z,60.36
2017-03-02T13:47:11.219Z,60.29
2017-03-02T13:47:39.301Z,59.8
2017-03-02T13:48:07.593Z,60
2017-03-02T13:48:35.860Z,60.1
2017-03-02T13:49:04.086Z,59.7
2017-03-02T13:49:32.358Z,60.19
2017-03-02T13:50:00.464Z,60.94
2017-03-02T13:50:28.789Z,61.14
2017-03-02T13:50:57.023Z,61.27
2017-03-02T13:51:25.039Z,60.97
2017-03-02T13:51:53.468Z,60.88
2017-03-02T13:52:21.662Z,61.17
2017-03-02T13:52:49.798Z,61.36
2017-03-02T13:53:17.894Z,61.76
2017-03-02T13:53:46.189Z,61.53
2017-03-02T13:54:14.307Z,62.5
2017-03-02T13:54:42.524Z,62.41
2017-03-02T13:55:10.628Z,62.79
2017-03-02T13:55:38.741Z,62.76
2017-03-02T13:56:06.975Z,62.96
2017-03-02T13:56:35.431Z,63.45
2017-03-02T13:57:03.560Z,63.71
2017-03-02T13:57:31.842Z,64.78
2017-03-02T13:58:00.046Z,64.87
2017-03-02T13:58:28.150Z,65.36
2017-03-02T13:58:56.336Z,65.63
2017-03-02T13:59:24.572Z,65.82
2017-03-02T13:59:52.718Z,65.92
2017-03-02T14:00:20.948Z,66.08
2017-03-02T14:00:48.937Z,66.08
2017-03-02T14:01:17.213Z,66.27
2017-03-02T14:01:45.561Z,66.27
2017-03-02T14:02:13.572Z,66.56
2017-03-02T14:02:41.862Z,66.27
2017-03-02T14:03:10.170Z,65.56
2017-03-02T14:03:38.426Z,66.24
2017-03-02T14:04:06.659Z,66.44
2017-03-02T14:04:35.003Z,66.44
2017-03-02T14:05:03.224Z,66.34
2017-03-02T14:05:31.360Z,66.34
2017-03-02T14:05:59.559Z,66.34
2017-03-02T14:06:27.665Z,66.14
2017-03-02T14:06:55.834Z,66.14
2017-03-02T14:07:24.226Z,66.34
2017-03-02T14:07:52.404Z,65.59
2017-03-02T14:08:20.421Z,65.69
2017-03-02T14:08:48.525Z,65.2
2017-03-02T14:09:16.769Z,64.94
2017-03-02T14:09:45.011Z,64.55
2017-03-02T14:10:13.322Z,64.45
2017-03-02T14:10:41.409Z,63.97
2017-03-02T14:11:09.681Z,63.51
2017-03-02T14:11:37.848Z,62.96
2017-03-02T14:12:06.283Z,62.76
2017-03-02T14:12:34.428Z,61.5
2017-03-02T14:13:02.695Z,61.33
2017-03-02T14:13:31.031Z,60.46
2017-03-02T14:13:59.273Z,59.9
2017-03-02T14:14:27.420Z,58.86
2017-03-02T14:14:55.464Z,58.98
2017-03-02T14:15:23.700Z,57.13
2017-03-02T14:15:51.899Z,57.15
2017-03-02T14:16:20.181Z,56.47
2017-03-02T14:16:48.240Z,55.69
2017-03-02T14:17:16.476Z,55.03
2017-03-02T14:17:44.746Z,54.93
2017-03-02T14:18:13.104Z,54.15
2017-03-02T14:18:41.359Z,54.17
2017-03-02T14:19:09.392Z,54.28
2017-03-02T14:19:37.597Z,54.17
2017-03-02T14:20:05.629Z,54.44
2017-03-02T14:20:33.826Z,53.86
2017-03-02T14:21:02.141Z,54.15
2017-03-02T14:21:30.428Z,54.25
2017-03-02T14:21:58.612Z,54.25
2017-03-02T14:22:26.828Z,54.83
2017-03-02T14:22:55.152Z,54.64
2017-03-02T14:23:23.550Z,54.25
2017-03-02T14:23:51.790Z,54.64
2017-03-02T14:24:20.135Z,54.44
2017-03-02T14:24:48.404Z,55.1
2017-03-02T14:25:16.562Z,55.59
2017-03-02T14:25:44.665Z,55.49
2017-03-02T14:26:12.806Z,56.08
2017-03-02T14:26:41.018Z,56.25
2017-03-02T14:27:09.109Z,56.84
2017-03-02T14:27:37.321Z,57
2017-03-02T14:28:05.532Z,57.2
2017-03-02T14:28:33.730Z,57.88
2017-03-02T14:29:02.088Z,58.47
2017-03-02T14:29:30.527Z,57.78
2017-03-02T14:29:58.652Z,58.14
2017-03-02T14:30:27.171Z,58.24
2017-03-02T14:30:55.388Z,58.73
2017-03-02T14:31:23.498Z,59.12
2017-03-02T14:31:51.898Z,59.41
2017-03-02T14:32:19.996Z,59.61
2017-03-02T14:32:48.299Z,59.8
2017-03-02T14:33:16.528Z,60
2017-03-02T14:33:44.786Z,59.7
2017-03-02T14:34:13.005Z,59.02
2017-03-02T14:34:41.255Z,58.53
2017-03-02T14:35:09.545Z,58.73
2017-03-02T14:35:37.664Z,58.92
2017-03-02T14:36:05.908Z,58.44
2017-03-02T14:36:34.138Z,58.24
2017-03-02T14:37:02.579Z,58.24
2017-03-02T14:37:31.031Z,58.37
2017-03-02T14:37:59.058Z,58.07
2017-03-02T14:38:27.147Z,57.32
2017-03-02T14:38:55.280Z,57.32
2017-03-02T14:39:23.523Z,56.37
2017-03-02T14:39:51.722Z,55.59
2017-03-02T14:40:19.826Z,55.22
2017-03-02T14:40:48.070Z,54.44
2017-03-02T14:41:16.324Z,54.35
2017-03-02T14:41:44.547Z,53.49
2017-03-02T14:42:13.061Z,52.93
2017-03-02T14:42:41.204Z,52.64
2017-03-02T14:43:09.509Z,51.9
2017-03-02T14:43:37.711Z,51.61
2017-03-02T14:44:06.030Z,50.66
2017-03-02T14:44:34.099Z,49.77
2017-03-02T14:45:02.305Z,48.5
2017-03-02T14:45:30.563Z,48.99
2017-03-02T14:45:58.816Z,48.8
2017-03-02T14:46:26.966Z,48.99
2017-03-02T14:46:55.150Z,49.46
2017-03-02T14:47:23.482Z,49.75
2017-03-02T14:47:51.731Z,49.75
2017-03-02T14:48:19.911Z,49.65
2017-03-02T14:48:48.094Z,50.15
2017-03-02T14:49:16.268Z,50.34
2017-03-02T14:49:44.589Z,50.04
2017-03-02T14:50:12.864Z,49.85
2017-03-02T14:50:41.078Z,48.99
2017-03-02T14:51:09.602Z,48.63
2017-03-02T14:51:37.876Z,48.16
2017-03-02T14:52:06.060Z,47.3
2017-03-02T14:52:34.235Z,46.73
2017-03-02T14:53:02.533Z,46.06
2017-03-02T14:53:30.771Z,45.3
2017-03-02T14:53:59.010Z,44.52
2017-03-02T14:54:27.197Z,43.53
2017-03-02T14:54:55.399Z,43.83
2017-03-02T14:55:26.229Z,44.3
2017-03-02T14:55:54.389Z,44.49
2017-03-02T14:56:22.689Z,44.27
2017-03-02T14:56:50.803Z,45.16
2017-03-02T14:57:19.117Z,45.73
2017-03-02T14:57:47.307Z,46.61
2017-03-02T14:58:15.702Z,46.41
2017-03-02T14:58:43.892Z,46.69
2017-03-02T14:59:12.106Z,46.98
2017-03-02T14:59:40.489Z,46.78
2017-03-02T15:00:08.712Z,46.69
2017-03-02T15:00:36.883Z,47.08
2017-03-02T15:01:05.121Z,47.55
2017-03-02T15:01:33.360Z,47.55
2017-03-02T15:02:01.671Z,48.11
2017-03-02T15:02:29.955Z,48.01
2017-03-02T15:02:58.037Z,49.16
2017-03-02T15:03:26.208Z,49.36
2017-03-02T15:03:54.420Z,49.92
2017-03-02T15:04:22.708Z,49.92
2017-03-02T15:04:51.047Z,50.32
2017-03-02T15:05:19.146Z,50.59
2017-03-02T15:05:47.187Z,51.46
2017-03-02T15:06:15.394Z,51.07
2017-03-02T15:06:43.663Z,50.98
2017-03-02T15:07:11.840Z,51.07
2017-03-02T15:07:39.878Z,51.25
2017-03-02T15:08:08.204Z,51.73
2017-03-02T15:08:36.638Z,52.29
2017-03-02T15:09:04.697Z,52.88
2017-03-02T15:09:32.872Z,53.15
2017-03-02T15:10:01.061Z,53.34
2017-03-02T15:10:29.163Z,53.83
2017-03-02T15:10:57.359Z,53.93
2017-03-02T15:11:25.595Z,54.13
2017-03-02T15:11:53.960Z,54.03
2017-03-02T15:12:22.057Z,54.05
2017-03-02T15:12:50.170Z,53.56
2017-03-02T15:13:18.182Z,53.1
2017-03-02T15:13:46.385Z,52.61
2017-03-02T15:14:14.593Z,52.91
2017-03-02T15:14:42.798Z,52.54
2017-03-02T15:15:11.067Z,52.51
2017-03-02T15:15:39.291Z,52.42
2017-03-02T15:16:07.664Z,52.81
2017-03-02T15:16:35.959Z,52.61
2017-03-02T15:17:04.152Z,52.83
2017-03-02T15:17:32.462Z,52.25
2017-03-02T15:18:00.750Z,51.56
2017-03-02T15:18:29.096Z,51.27
2017-03-02T15:18:57.287Z,51.37
2017-03-02T15:19:25.452Z,51.56
2017-03-02T15:19:53.576Z,51.68
2017-03-02T15:20:21.922Z,51.2
2017-03-02T15:20:50.100Z,51.59
2017-03-02T15:21:18.397Z,51.56
2017-03-02T15:21:47.265Z,51.46
2017-03-02T15:22:15.536Z,51.86
2017-03-02T15:22:44.445Z,51.86
2017-03-02T15:23:12.634Z,52.12
2017-03-02T15:23:40.857Z,51.95
2017-03-02T15:24:09.173Z,52.61
2017-03-02T15:24:37.405Z,52.54
2017-03-02T15:25:05.507Z,52.93
2017-03-02T15:25:33.650Z,52.25
2017-03-02T15:26:01.757Z,52.54
2017-03-02T15:26:29.996Z,51.49
2017-03-02T15:26:58.358Z,51.1
2017-03-02T15:27:26.633Z,50.9
2017-03-02T15:27:54.812Z,50.12
2017-03-02T15:28:22.917Z,49.55
2017-03-02T15:28:51.106Z,49.19
2017-03-02T15:29:19.029Z,47.94
2017-03-02T15:29:47.182Z,47.64
2017-03-02T15:30:15.411Z,47.55
2017-03-02T15:30:43.728Z,47.2
2017-03-02T15:31:12.237Z,46.81
2017-03-02T15:31:40.325Z,46.44
2017-03-02T15:32:08.726Z,44.98
2017-03-02T15:32:37.174Z,45.2
2017-03-02T15:33:05.480Z,45.2
2017-03-02T15:33:33.785Z,45.2
2017-03-02T15:34:02.106Z,44.22
2017-03-02T15:34:30.851Z,44.32
2017-03-02T15:34:58.986Z,44.42
2017-03-02T15:35:27.278Z,44.12
2017-03-02T15:35:55.560Z,44.12
2017-03-02T15:36:23.882Z,43.75
2017-03-02T15:36:52.254Z,43.46
2017-03-02T15:37:20.396Z,43.65
2017-03-02T15:37:48.460Z,44.02
2017-03-02T15:38:16.570Z,44.42
2017-03-02T15:38:45.290Z,44.52
2017-03-02T15:39:13.624Z,44.62
2017-03-02T15:39:41.793Z,43.75
2017-03-02T15:40:09.970Z,43.16
2017-03-02T15:40:38.162Z,42.3
2017-03-02T15:41:06.368Z,42.1
2017-03-02T15:41:34.760Z,41.43
2017-03-02T15:42:02.928Z,41.24
2017-03-02T15:42:31.281Z,40.45
2017-03-02T15:42:59.564Z,40.82
2017-03-02T15:43:27.608Z,41.39
2017-03-02T15:43:55.677Z,42.25
2017-03-02T15:44:23.965Z,42.82
2017-03-02T15:44:52.134Z,43.88
2017-03-02T15:45:20.357Z,44.35
2017-03-02T15:45:48.448Z,45.02
2017-03-02T15:46:16.579Z,45.68
2017-03-02T15:46:44.740Z,45.8
2017-03-02T15:47:12.969Z,46.27
2017-03-02T15:47:41.306Z,46.66
2017-03-02T15:48:09.570Z,46.94
2017-03-02T15:48:37.843Z,47.16
2017-03-02T15:49:06.047Z,47.16
2017-03-02T15:49:34.269Z,46.56
2017-03-02T15:50:02.443Z,45.9
2017-03-02T15:50:30.704Z,45.34
2017-03-02T15:50:58.940Z,44.47
2017-03-02T15:51:27.314Z,43.8
2017-03-02T15:51:55.987Z,43.02
2017-03-02T15:52:24.151Z,42.45
2017-03-02T15:52:52.311Z,41.88
2017-03-02T15:53:20.385Z,41.31
2017-03-02T15:53:48.621Z,40.82
2017-03-02T15:54:16.804Z,40.72
2017-03-02T15:54:45.012Z,40.82
2017-03-02T15:55:13.358Z,41.59
2017-03-02T15:55:41.728Z,41.39
2017-03-02T15:56:09.903Z,41.19
2017-03-02T15:56:38.085Z,41
2017-03-02T15:57:06.194Z,40.7
2017-03-02T15:57:34.576Z,40.13
2017-03-02T15:58:02.655Z,40.43
2017-03-02T15:58:30.878Z,40.05
2017-03-02T15:58:58.954Z,39.39
2017-03-02T15:59:27.423Z,38.42
2017-03-02T15:59:55.645Z,38.12
2017-03-02T16:00:23.940Z,38.22
2017-03-02T16:00:51.916Z,38.02
2017-03-02T16:01:20.226Z,38.22
2017-03-02T16:01:48.369Z,38.49
2017-03-02T16:02:16.492Z,38.7
2017-03-02T16:02:44.911Z,38.97
2017-03-02T16:03:13.002Z,39.52
2017-03-02T16:03:41.321Z,40.39
2017-03-02T16:04:09.337Z,41.06
2017-03-02T16:04:37.597Z,42.21
2017-03-02T16:05:05.849Z,43.08
2017-03-02T16:05:34.145Z,43.84
2017-03-02T16:06:02.305Z,44.33
2017-03-02T16:06:30.448Z,44.33
2017-03-02T16:06:58.659Z,44.33
2017-03-02T16:07:26.764Z,44.23
2017-03-02T16:07:55.052Z,44.53
2017-03-02T16:08:23.313Z,43.37
2017-03-02T16:08:51.555Z,42.68
2017-03-02T16:09:19.985Z,42.29
2017-03-02T16:09:48.246Z,42.19
2017-03-02T16:10:16.502Z,42.29
2017-03-02T16:10:44.590Z,42.29
2017-03-02T16:11:12.582Z,42.79
2017-03-02T16:11:40.914Z,43.08
2017-03-02T16:12:09.076Z,43.37
2017-03-02T16:12:37.198Z,43.18
2017-03-02T16:13:05.630Z,43.74
2017-03-02T16:13:33.884Z,43.74
2017-03-02T16:14:02.120Z,44.62
2017-03-02T16:14:30.157Z,44.23
2017-03-02T16:14:58.291Z,44.04